Terminal Aerodrome Forecast
Issued by NWS Cleveland, OH

Home | Current Version | Previous Version | Graphics & Text | Print | Product List | Glossary Off
Versions: 1 2 3 4 5 6 7 8 9 10 11 12 13 14 15 16 17 18 19 20 21

000
FTUS41 KCLE 211500 AAB
TAFERI
TAF AMD
KERI 211509Z 2115/2212 27015G30KT P6SM SCT015 BKN035
      TEMPO 2115/2117 2SM TSRA BR BKN015 OVC025CB
     FM212000 28014G22KT P6SM VCTS BKN035CB
      TEMPO 2122/2201 5SM -SHRA OVC035
     FM220100 34010KT P6SM VCSH BKN030=

USA.gov is the U.S. government's official web portal to all federal, state and local government web resources and services.